sensor_id;sensor_type;location;lat;lon;timestamp;P1;durP1;ratioP1;P2;durP2;ratioP2
9178;SDS011;4624;48.126;11.546;2022-08-19T00:01:15;2.30;;;2.20;;
9178;SDS011;4624;48.126;11.546;2022-08-19T00:03:42;2.10;;;2.00;;
9178;SDS011;4624;48.126;11.546;2022-08-19T00:06:09;2.40;;;2.30;;
9178;SDS011;4624;48.126;11.546;2022-08-19T00:08:36;2.23;;;2.00;;
9178;SDS011;4624;48.126;11.546;2022-08-19T00:11:02;2.67;;;2.47;;
9178;SDS011;4624;48.126;11.546;2022-08-19T00:13:31;2.77;;;2.57;;
9178;SDS011;4624;48.126;11.546;2022-08-19T00:15:58;2.40;;;2.20;;
9178;SDS011;4624;48.126;11.546;2022-08-19T00:18:25;3.03;;;2.73;;
9178;SDS011;4624;48.126;11.546;2022-08-19T00:20:52;2.93;;;2.70;;
9178;SDS011;4624;48.126;11.546;2022-08-19T00:23:19;2.57;;;2.40;;
9178;SDS011;4624;48.126;11.546;2022-08-19T00:25:46;2.87;;;2.67;;
9178;SDS011;4624;48.126;11.546;2022-08-19T00:28:13;3.00;;;2.80;;
9178;SDS011;4624;48.126;11.546;2022-08-19T00:30:41;3.03;;;2.83;;
9178;SDS011;4624;48.126;11.546;2022-08-19T00:33:07;3.17;;;2.93;;
9178;SDS011;4624;48.126;11.546;2022-08-19T00:35:34;3.97;;;3.67;;
9178;SDS011;4624;48.126;11.546;2022-08-19T00:38:03;3.10;;;2.90;;
9178;SDS011;4624;48.126;11.546;2022-08-19T00:40:31;3.47;;;3.17;;
9178;SDS011;4624;48.126;11.546;2022-08-19T00:42:59;5.00;;;3.17;;
9178;SDS011;4624;48.126;11.546;2022-08-19T00:45:26;3.53;;;3.23;;
9178;SDS011;4624;48.126;11.546;2022-08-19T00:47:56;3.40;;;3.20;;
9178;SDS011;4624;48.126;11.546;2022-08-19T00:50:23;3.53;;;3.23;;
9178;SDS011;4624;48.126;11.546;2022-08-19T00:52:50;3.43;;;3.23;;
9178;SDS011;4624;48.126;11.546;2022-08-19T00:55:19;3.97;;;3.67;;
9178;SDS011;4624;48.126;11.546;2022-08-19T00:57:48;3.97;;;3.57;;
9178;SDS011;4624;48.126;11.546;2022-08-19T01:00:19;3.90;;;3.60;;
9178;SDS011;4624;48.126;11.546;2022-08-19T01:02:47;4.13;;;3.83;;
9178;SDS011;4624;48.126;11.546;2022-08-19T01:05:16;4.30;;;4.00;;
9178;SDS011;4624;48.126;11.546;2022-08-19T01:07:46;4.40;;;4.03;;
9178;SDS011;4624;48.126;11.546;2022-08-19T01:10:16;4.50;;;4.10;;
9178;SDS011;4624;48.126;11.546;2022-08-19T01:12:45;4.27;;;3.97;;
9178;SDS011;4624;48.126;11.546;2022-08-19T01:15:14;4.03;;;3.73;;
9178;SDS011;4624;48.126;11.546;2022-08-19T01:17:43;3.97;;;3.67;;
9178;SDS011;4624;48.126;11.546;2022-08-19T01:20:12;5.60;;;5.10;;
9178;SDS011;4624;48.126;11.546;2022-08-19T01:22:44;4.20;;;3.90;;
9178;SDS011;4624;48.126;11.546;2022-08-19T01:25:14;5.03;;;4.53;;
9178;SDS011;4624;48.126;11.546;2022-08-19T01:27:42;4.63;;;4.33;;
9178;SDS011;4624;48.126;11.546;2022-08-19T01:30:13;5.50;;;5.10;;
9178;SDS011;4624;48.126;11.546;2022-08-19T01:32:42;5.73;;;5.17;;
9178;SDS011;4624;48.126;11.546;2022-08-19T01:35:09;5.90;;;5.27;;
9178;SDS011;4624;48.126;11.546;2022-08-19T01:37:46;5.00;;;4.60;;
9178;SDS011;4624;48.126;11.546;2022-08-19T01:40:14;5.20;;;4.03;;
9178;SDS011;4624;48.126;11.546;2022-08-19T01:42:41;4.60;;;4.20;;
9178;SDS011;4624;48.126;11.546;2022-08-19T01:45:08;5.43;;;4.97;;
9178;SDS011;4624;48.126;11.546;2022-08-19T01:47:36;5.00;;;4.60;;
9178;SDS011;4624;48.126;11.546;2022-08-19T01:50:04;4.97;;;4.57;;
9178;SDS011;4624;48.126;11.546;2022-08-19T01:52:34;6.00;;;4.67;;
9178;SDS011;4624;48.126;11.546;2022-08-19T01:55:03;4.80;;;4.40;;
9178;SDS011;4624;48.126;11.546;2022-08-19T01:57:31;4.37;;;4.07;;
9178;SDS011;4624;48.126;11.546;2022-08-19T01:59:59;4.60;;;4.30;;
9178;SDS011;4624;48.126;11.546;2022-08-19T02:02:27;4.80;;;4.40;;
9178;SDS011;4624;48.126;11.546;2022-08-19T02:04:54;4.93;;;4.57;;
9178;SDS011;4624;48.126;11.546;2022-08-19T02:07:21;4.43;;;4.13;;
9178;SDS011;4624;48.126;11.546;2022-08-19T02:09:48;4.00;;;3.73;;
9178;SDS011;4624;48.126;11.546;2022-08-19T02:12:16;4.93;;;4.30;;
9178;SDS011;4624;48.126;11.546;2022-08-19T02:14:43;5.63;;;4.40;;
9178;SDS011;4624;48.126;11.546;2022-08-19T02:17:10;4.73;;;4.43;;
9178;SDS011;4624;48.126;11.546;2022-08-19T02:19:36;4.03;;;3.73;;
9178;SDS011;4624;48.126;11.546;2022-08-19T02:22:03;4.50;;;4.10;;
9178;SDS011;4624;48.126;11.546;2022-08-19T02:24:30;5.23;;;4.73;;
9178;SDS011;4624;48.126;11.546;2022-08-19T02:26:57;4.23;;;3.87;;
9178;SDS011;4624;48.126;11.546;2022-08-19T02:29:26;5.20;;;4.70;;
9178;SDS011;4624;48.126;11.546;2022-08-19T02:31:52;4.57;;;4.23;;
9178;SDS011;4624;48.126;11.546;2022-08-19T02:34:19;4.30;;;4.00;;
9178;SDS011;4624;48.126;11.546;2022-08-19T02:36:46;4.50;;;4.20;;
9178;SDS011;4624;48.126;11.546;2022-08-19T02:39:13;4.70;;;4.23;;
9178;SDS011;4624;48.126;11.546;2022-08-19T02:41:39;4.40;;;4.10;;
9178;SDS011;4624;48.126;11.546;2022-08-19T02:44:06;4.13;;;3.80;;
9178;SDS011;4624;48.126;11.546;2022-08-19T02:46:35;4.10;;;3.70;;
9178;SDS011;4624;48.126;11.546;2022-08-19T02:49:02;3.67;;;3.37;;
9178;SDS011;4624;48.126;11.546;2022-08-19T02:51:32;4.00;;;3.70;;
9178;SDS011;4624;48.126;11.546;2022-08-19T02:54:01;3.80;;;3.40;;
9178;SDS011;4624;48.126;11.546;2022-08-19T02:56:28;3.60;;;3.30;;
9178;SDS011;4624;48.126;11.546;2022-08-19T02:58:56;4.03;;;3.60;;
9178;SDS011;4624;48.126;11.546;2022-08-19T03:01:24;3.83;;;3.47;;
9178;SDS011;4624;48.126;11.546;2022-08-19T03:03:54;3.73;;;3.43;;
9178;SDS011;4624;48.126;11.546;2022-08-19T03:06:21;4.50;;;4.20;;
9178;SDS011;4624;48.126;11.546;2022-08-19T03:08:49;4.10;;;3.80;;
9178;SDS011;4624;48.126;11.546;2022-08-19T03:11:18;3.63;;;3.33;;
9178;SDS011;4624;48.126;11.546;2022-08-19T03:13:46;3.77;;;3.43;;
9178;SDS011;4624;48.126;11.546;2022-08-19T03:16:16;4.73;;;3.67;;
9178;SDS011;4624;48.126;11.546;2022-08-19T03:18:44;3.30;;;3.10;;
9178;SDS011;4624;48.126;11.546;2022-08-19T03:21:16;4.70;;;4.30;;
9178;SDS011;4624;48.126;11.546;2022-08-19T03:23:44;4.13;;;3.83;;
9178;SDS011;4624;48.126;11.546;2022-08-19T03:26:10;4.20;;;3.90;;
9178;SDS011;4624;48.126;11.546;2022-08-19T03:28:37;3.47;;;3.17;;
9178;SDS011;4624;48.126;11.546;2022-08-19T03:31:05;4.20;;;3.90;;
9178;SDS011;4624;48.126;11.546;2022-08-19T03:33:34;4.07;;;3.73;;
9178;SDS011;4624;48.126;11.546;2022-08-19T03:36:02;4.60;;;3.90;;
9178;SDS011;4624;48.126;11.546;2022-08-19T03:38:33;3.00;;;2.80;;
9178;SDS011;4624;48.126;11.546;2022-08-19T03:41:04;3.27;;;3.07;;
9178;SDS011;4624;48.126;11.546;2022-08-19T03:43:33;3.40;;;3.20;;
9178;SDS011;4624;48.126;11.546;2022-08-19T03:46:01;3.80;;;3.13;;
9178;SDS011;4624;48.126;11.546;2022-08-19T03:48:29;3.17;;;2.90;;
9178;SDS011;4624;48.126;11.546;2022-08-19T03:50:57;3.57;;;3.27;;
9178;SDS011;4624;48.126;11.546;2022-08-19T03:53:25;3.90;;;3.50;;
9178;SDS011;4624;48.126;11.546;2022-08-19T03:55:53;4.10;;;3.00;;
9178;SDS011;4624;48.126;11.546;2022-08-19T03:58:21;3.00;;;2.77;;
9178;SDS011;4624;48.126;11.546;2022-08-19T04:00:48;4.30;;;3.40;;
9178;SDS011;4624;48.126;11.546;2022-08-19T04:03:15;3.80;;;3.40;;
9178;SDS011;4624;48.126;11.546;2022-08-19T04:05:43;3.13;;;2.93;;
9178;SDS011;4624;48.126;11.546;2022-08-19T04:08:11;3.70;;;2.53;;
9178;SDS011;4624;48.126;11.546;2022-08-19T04:10:38;4.60;;;3.53;;
9178;SDS011;4624;48.126;11.546;2022-08-19T04:13:07;3.23;;;3.03;;
9178;SDS011;4624;48.126;11.546;2022-08-19T04:18:01;3.43;;;3.23;;
9178;SDS011;4624;48.126;11.546;2022-08-19T04:20:31;4.13;;;3.70;;
9178;SDS011;4624;48.126;11.546;2022-08-19T04:22:58;3.80;;;3.50;;
9178;SDS011;4624;48.126;11.546;2022-08-19T04:25:24;4.00;;;3.70;;
9178;SDS011;4624;48.126;11.546;2022-08-19T04:27:51;4.40;;;4.00;;
9178;SDS011;4624;48.126;11.546;2022-08-19T04:30:19;4.43;;;3.93;;
9178;SDS011;4624;48.126;11.546;2022-08-19T04:32:47;5.90;;;5.30;;
9178;SDS011;4624;48.126;11.546;2022-08-19T04:35:15;5.17;;;4.50;;
9178;SDS011;4624;48.126;11.546;2022-08-19T04:37:42;4.47;;;4.07;;
9178;SDS011;4624;48.126;11.546;2022-08-19T04:40:09;4.37;;;3.97;;
9178;SDS011;4624;48.126;11.546;2022-08-19T04:42:54;4.70;;;4.30;;
9178;SDS011;4624;48.126;11.546;2022-08-19T04:45:22;4.50;;;4.20;;
9178;SDS011;4624;48.126;11.546;2022-08-19T04:47:49;4.83;;;4.30;;
9178;SDS011;4624;48.126;11.546;2022-08-19T04:50:21;5.30;;;4.80;;
9178;SDS011;4624;48.126;11.546;2022-08-19T04:52:49;5.77;;;5.20;;
9178;SDS011;4624;48.126;11.546;2022-08-19T04:55:17;4.90;;;4.50;;
9178;SDS011;4624;48.126;11.546;2022-08-19T04:57:44;5.77;;;5.27;;
9178;SDS011;4624;48.126;11.546;2022-08-19T05:00:11;4.80;;;4.23;;
9178;SDS011;4624;48.126;11.546;2022-08-19T05:02:39;4.60;;;3.90;;
9178;SDS011;4624;48.126;11.546;2022-08-19T05:05:06;4.63;;;4.23;;
9178;SDS011;4624;48.126;11.546;2022-08-19T05:07:34;4.67;;;4.27;;
9178;SDS011;4624;48.126;11.546;2022-08-19T05:10:02;6.23;;;5.57;;
9178;SDS011;4624;48.126;11.546;2022-08-19T05:12:30;5.93;;;5.43;;
9178;SDS011;4624;48.126;11.546;2022-08-19T05:14:58;5.70;;;5.20;;
9178;SDS011;4624;48.126;11.546;2022-08-19T05:17:26;6.60;;;5.47;;
9178;SDS011;4624;48.126;11.546;2022-08-19T05:19:55;5.70;;;5.20;;
9178;SDS011;4624;48.126;11.546;2022-08-19T05:22:40;5.13;;;4.50;;
9178;SDS011;4624;48.126;11.546;2022-08-19T05:25:09;6.93;;;5.17;;
9178;SDS011;4624;48.126;11.546;2022-08-19T05:27:39;5.50;;;4.33;;
9178;SDS011;4624;48.126;11.546;2022-08-19T05:30:07;5.37;;;4.97;;
9178;SDS011;4624;48.126;11.546;2022-08-19T05:32:35;6.80;;;5.27;;
9178;SDS011;4624;48.126;11.546;2022-08-19T05:35:04;5.73;;;5.23;;
9178;SDS011;4624;48.126;11.546;2022-08-19T05:37:32;6.63;;;4.80;;
9178;SDS011;4624;48.126;11.546;2022-08-19T05:40:00;5.17;;;4.67;;
9178;SDS011;4624;48.126;11.546;2022-08-19T05:42:27;5.20;;;4.80;;
9178;SDS011;4624;48.126;11.546;2022-08-19T05:44:53;6.37;;;5.03;;
9178;SDS011;4624;48.126;11.546;2022-08-19T05:47:21;5.43;;;4.80;;
9178;SDS011;4624;48.126;11.546;2022-08-19T05:49:48;5.60;;;4.60;;
9178;SDS011;4624;48.126;11.546;2022-08-19T05:52:17;6.30;;;5.80;;
9178;SDS011;4624;48.126;11.546;2022-08-19T05:54:45;5.87;;;5.13;;
9178;SDS011;4624;48.126;11.546;2022-08-19T05:57:13;5.30;;;4.77;;
9178;SDS011;4624;48.126;11.546;2022-08-19T05:59:40;6.47;;;5.87;;
9178;SDS011;4624;48.126;11.546;2022-08-19T06:02:07;6.50;;;5.33;;
9178;SDS011;4624;48.126;11.546;2022-08-19T06:04:34;6.07;;;5.57;;
9178;SDS011;4624;48.126;11.546;2022-08-19T06:07:01;5.97;;;5.30;;
9178;SDS011;4624;48.126;11.546;2022-08-19T06:09:29;7.20;;;6.50;;
9178;SDS011;4624;48.126;11.546;2022-08-19T06:11:57;6.77;;;6.17;;
9178;SDS011;4624;48.126;11.546;2022-08-19T06:14:26;6.50;;;6.00;;
9178;SDS011;4624;48.126;11.546;2022-08-19T06:16:54;5.90;;;5.37;;
9178;SDS011;4624;48.126;11.546;2022-08-19T06:19:23;7.23;;;6.53;;
9178;SDS011;4624;48.126;11.546;2022-08-19T06:21:51;6.43;;;5.90;;
9178;SDS011;4624;48.126;11.546;2022-08-19T06:24:19;6.20;;;5.60;;
9178;SDS011;4624;48.126;11.546;2022-08-19T06:26:50;6.47;;;5.87;;
9178;SDS011;4624;48.126;11.546;2022-08-19T06:29:20;6.50;;;5.90;;
9178;SDS011;4624;48.126;11.546;2022-08-19T06:31:49;7.67;;;6.60;;
9178;SDS011;4624;48.126;11.546;2022-08-19T06:34:19;6.77;;;6.17;;
9178;SDS011;4624;48.126;11.546;2022-08-19T06:36:47;8.07;;;7.37;;
9178;SDS011;4624;48.126;11.546;2022-08-19T06:39:16;7.60;;;6.83;;
9178;SDS011;4624;48.126;11.546;2022-08-19T06:41:46;7.83;;;7.03;;
9178;SDS011;4624;48.126;11.546;2022-08-19T06:44:15;7.27;;;6.57;;
9178;SDS011;4624;48.126;11.546;2022-08-19T06:46:44;8.60;;;7.70;;
9178;SDS011;4624;48.126;11.546;2022-08-19T06:49:11;8.63;;;7.47;;
9178;SDS011;4624;48.126;11.546;2022-08-19T06:51:39;8.27;;;6.97;;
9178;SDS011;4624;48.126;11.546;2022-08-19T06:54:07;8.20;;;7.40;;
9178;SDS011;4624;48.126;11.546;2022-08-19T06:56:34;7.93;;;7.13;;
9178;SDS011;4624;48.126;11.546;2022-08-19T06:59:02;7.50;;;6.80;;
9178;SDS011;4624;48.126;11.546;2022-08-19T07:01:35;7.80;;;7.03;;
9178;SDS011;4624;48.126;11.546;2022-08-19T07:04:02;7.67;;;6.97;;
9178;SDS011;4624;48.126;11.546;2022-08-19T07:06:30;7.33;;;6.63;;
9178;SDS011;4624;48.126;11.546;2022-08-19T07:08:57;7.20;;;6.57;;
9178;SDS011;4624;48.126;11.546;2022-08-19T07:11:24;7.00;;;6.40;;
9178;SDS011;4624;48.126;11.546;2022-08-19T07:13:51;7.50;;;6.63;;
9178;SDS011;4624;48.126;11.546;2022-08-19T07:16:20;7.37;;;6.40;;
9178;SDS011;4624;48.126;11.546;2022-08-19T07:18:49;7.60;;;7.00;;
9178;SDS011;4624;48.126;11.546;2022-08-19T07:21:18;7.03;;;6.43;;
9178;SDS011;4624;48.126;11.546;2022-08-19T07:23:46;8.27;;;6.93;;
9178;SDS011;4624;48.126;11.546;2022-08-19T07:26:15;8.13;;;7.30;;
9178;SDS011;4624;48.126;11.546;2022-08-19T07:28:44;8.17;;;7.33;;
9178;SDS011;4624;48.126;11.546;2022-08-19T07:31:11;10.27;;;9.27;;
9178;SDS011;4624;48.126;11.546;2022-08-19T07:33:39;9.80;;;8.90;;
9178;SDS011;4624;48.126;11.546;2022-08-19T07:36:10;9.77;;;8.77;;
9178;SDS011;4624;48.126;11.546;2022-08-19T07:38:39;10.13;;;9.13;;
9178;SDS011;4624;48.126;11.546;2022-08-19T07:41:09;10.27;;;9.33;;
9178;SDS011;4624;48.126;11.546;2022-08-19T07:43:37;9.97;;;8.80;;
9178;SDS011;4624;48.126;11.546;2022-08-19T07:46:05;11.50;;;10.03;;
9178;SDS011;4624;48.126;11.546;2022-08-19T07:48:32;10.90;;;8.90;;
9178;SDS011;4624;48.126;11.546;2022-08-19T07:51:01;10.53;;;9.53;;
9178;SDS011;4624;48.126;11.546;2022-08-19T07:53:31;10.37;;;9.27;;
9178;SDS011;4624;48.126;11.546;2022-08-19T07:55:58;10.50;;;9.50;;
9178;SDS011;4624;48.126;11.546;2022-08-19T07:58:29;10.97;;;9.77;;
9178;SDS011;4624;48.126;11.546;2022-08-19T08:00:58;10.17;;;9.20;;
9178;SDS011;4624;48.126;11.546;2022-08-19T08:03:25;10.97;;;9.87;;
9178;SDS011;4624;48.126;11.546;2022-08-19T08:06:07;11.47;;;10.23;;
9178;SDS011;4624;48.126;11.546;2022-08-19T08:08:53;11.50;;;9.77;;
9178;SDS011;4624;48.126;11.546;2022-08-19T08:11:43;11.43;;;10.33;;
9178;SDS011;4624;48.126;11.546;2022-08-19T08:14:14;11.47;;;10.47;;
9178;SDS011;4624;48.126;11.546;2022-08-19T08:16:41;13.50;;;12.13;;
9178;SDS011;4624;48.126;11.546;2022-08-19T08:19:10;13.40;;;12.00;;
9178;SDS011;4624;48.126;11.546;2022-08-19T08:21:40;13.73;;;12.37;;
9178;SDS011;4624;48.126;11.546;2022-08-19T08:24:09;12.73;;;11.43;;
9178;SDS011;4624;48.126;11.546;2022-08-19T08:26:37;13.37;;;11.97;;
9178;SDS011;4624;48.126;11.546;2022-08-19T08:29:04;13.03;;;11.83;;
9178;SDS011;4624;48.126;11.546;2022-08-19T08:31:32;14.47;;;13.17;;
9178;SDS011;4624;48.126;11.546;2022-08-19T08:33:59;15.43;;;13.67;;
9178;SDS011;4624;48.126;11.546;2022-08-19T08:36:26;14.10;;;12.73;;
9178;SDS011;4624;48.126;11.546;2022-08-19T08:38:53;13.70;;;12.40;;
9178;SDS011;4624;48.126;11.546;2022-08-19T08:41:28;14.37;;;12.87;;
9178;SDS011;4624;48.126;11.546;2022-08-19T08:44:00;14.63;;;13.13;;
9178;SDS011;4624;48.126;11.546;2022-08-19T08:46:30;14.83;;;13.33;;
9178;SDS011;4624;48.126;11.546;2022-08-19T08:49:04;14.67;;;13.17;;
9178;SDS011;4624;48.126;11.546;2022-08-19T08:51:51;13.97;;;12.60;;
9178;SDS011;4624;48.126;11.546;2022-08-19T08:54:30;13.67;;;12.27;;
9178;SDS011;4624;48.126;11.546;2022-08-19T08:57:01;14.10;;;12.73;;
9178;SDS011;4624;48.126;11.546;2022-08-19T08:59:30;14.43;;;12.97;;
9178;SDS011;4624;48.126;11.546;2022-08-19T09:02:00;16.33;;;13.80;;
9178;SDS011;4624;48.126;11.546;2022-08-19T09:04:27;15.23;;;13.63;;
9178;SDS011;4624;48.126;11.546;2022-08-19T09:06:56;15.97;;;14.37;;
9178;SDS011;4624;48.126;11.546;2022-08-19T09:09:33;15.90;;;14.30;;
9178;SDS011;4624;48.126;11.546;2022-08-19T09:12:06;15.47;;;13.87;;
9178;SDS011;4624;48.126;11.546;2022-08-19T09:14:39;14.70;;;13.10;;
9178;SDS011;4624;48.126;11.546;2022-08-19T09:17:12;14.83;;;12.87;;
9178;SDS011;4624;48.126;11.546;2022-08-19T09:19:46;14.43;;;13.03;;
9178;SDS011;4624;48.126;11.546;2022-08-19T09:22:16;13.80;;;12.40;;
9178;SDS011;4624;48.126;11.546;2022-08-19T09:24:46;13.93;;;12.43;;
9178;SDS011;4624;48.126;11.546;2022-08-19T09:27:15;13.87;;;12.43;;
9178;SDS011;4624;48.126;11.546;2022-08-19T09:29:42;13.30;;;12.00;;
9178;SDS011;4624;48.126;11.546;2022-08-19T09:32:08;15.23;;;12.87;;
9178;SDS011;4624;48.126;11.546;2022-08-19T09:34:35;12.93;;;11.63;;
9178;SDS011;4624;48.126;11.546;2022-08-19T09:37:02;13.70;;;12.30;;
9178;SDS011;4624;48.126;11.546;2022-08-19T09:39:30;12.87;;;11.53;;
9178;SDS011;4624;48.126;11.546;2022-08-19T09:41:57;13.67;;;10.90;;
9178;SDS011;4624;48.126;11.546;2022-08-19T09:44:25;13.00;;;11.63;;
9178;SDS011;4624;48.126;11.546;2022-08-19T09:46:52;12.37;;;11.17;;
9178;SDS011;4624;48.126;11.546;2022-08-19T09:49:19;12.87;;;10.80;;
9178;SDS011;4624;48.126;11.546;2022-08-19T09:51:48;12.33;;;11.07;;
9178;SDS011;4624;48.126;11.546;2022-08-19T09:54:16;13.73;;;12.13;;
9178;SDS011;4624;48.126;11.546;2022-08-19T09:56:43;12.97;;;11.70;;
9178;SDS011;4624;48.126;11.546;2022-08-19T09:59:10;12.43;;;11.13;;
9178;SDS011;4624;48.126;11.546;2022-08-19T10:01:38;12.67;;;11.40;;
9178;SDS011;4624;48.126;11.546;2022-08-19T10:04:05;13.60;;;12.20;;
9178;SDS011;4624;48.126;11.546;2022-08-19T10:06:34;12.30;;;11.10;;
9178;SDS011;4624;48.126;11.546;2022-08-19T10:09:03;12.07;;;10.87;;
9178;SDS011;4624;48.126;11.546;2022-08-19T10:11:31;12.70;;;11.00;;
9178;SDS011;4624;48.126;11.546;2022-08-19T10:13:59;12.17;;;10.57;;
9178;SDS011;4624;48.126;11.546;2022-08-19T10:16:26;12.37;;;11.17;;
9178;SDS011;4624;48.126;11.546;2022-08-19T10:18:55;11.73;;;10.53;;
9178;SDS011;4624;48.126;11.546;2022-08-19T10:21:23;11.67;;;10.47;;
9178;SDS011;4624;48.126;11.546;2022-08-19T10:23:52;12.43;;;11.23;;
9178;SDS011;4624;48.126;11.546;2022-08-19T10:26:23;11.37;;;10.23;;
9178;SDS011;4624;48.126;11.546;2022-08-19T10:28:52;10.52;;;9.43;;
9178;SDS011;4624;48.126;11.546;2022-08-19T10:31:21;10.73;;;9.73;;
9178;SDS011;4624;48.126;11.546;2022-08-19T10:33:49;10.82;;;9.73;;
9178;SDS011;4624;48.126;11.546;2022-08-19T10:36:24;9.60;;;8.70;;
9178;SDS011;4624;48.126;11.546;2022-08-19T10:38:53;10.55;;;9.50;;
9178;SDS011;4624;48.126;11.546;2022-08-19T10:41:24;10.43;;;9.38;;
9178;SDS011;4624;48.126;11.546;2022-08-19T10:43:52;9.68;;;8.77;;
9178;SDS011;4624;48.126;11.546;2022-08-19T10:46:21;9.77;;;8.88;;
9178;SDS011;4624;48.126;11.546;2022-08-19T10:48:49;10.80;;;8.93;;
9178;SDS011;4624;48.126;11.546;2022-08-19T10:51:16;9.48;;;8.68;;
9178;SDS011;4624;48.126;11.546;2022-08-19T10:54:02;8.80;;;8.00;;
9178;SDS011;4624;48.126;11.546;2022-08-19T10:56:30;7.15;;;6.53;;
9178;SDS011;4624;48.126;11.546;2022-08-19T10:59:14;7.20;;;6.60;;
9178;SDS011;4624;48.126;11.546;2022-08-19T11:01:42;7.45;;;6.85;;
9178;SDS011;4624;48.126;11.546;2022-08-19T11:04:11;9.05;;;8.15;;
9178;SDS011;4624;48.126;11.546;2022-08-19T11:06:38;8.40;;;7.70;;
9178;SDS011;4624;48.126;11.546;2022-08-19T11:09:09;7.93;;;7.22;;
9178;SDS011;4624;48.126;11.546;2022-08-19T11:11:37;7.38;;;6.78;;
9178;SDS011;4624;48.126;11.546;2022-08-19T11:14:06;7.78;;;7.03;;
9178;SDS011;4624;48.126;11.546;2022-08-19T11:16:33;6.95;;;6.28;;
9178;SDS011;4624;48.126;11.546;2022-08-19T11:19:00;6.35;;;5.80;;
9178;SDS011;4624;48.126;11.546;2022-08-19T11:21:28;9.10;;;8.30;;
9178;SDS011;4624;48.126;11.546;2022-08-19T11:23:58;8.35;;;7.55;;
9178;SDS011;4624;48.126;11.546;2022-08-19T11:26:28;7.88;;;7.18;;
9178;SDS011;4624;48.126;11.546;2022-08-19T11:28:56;8.45;;;7.65;;
9178;SDS011;4624;48.126;11.546;2022-08-19T11:31:23;7.78;;;7.07;;
9178;SDS011;4624;48.126;11.546;2022-08-19T11:33:51;6.25;;;5.75;;
9178;SDS011;4624;48.126;11.546;2022-08-19T11:36:19;7.05;;;6.45;;
9178;SDS011;4624;48.126;11.546;2022-08-19T11:38:46;6.53;;;6.03;;
9178;SDS011;4624;48.126;11.546;2022-08-19T11:41:14;4.78;;;4.38;;
9178;SDS011;4624;48.126;11.546;2022-08-19T11:43:44;3.20;;;3.00;;
9178;SDS011;4624;48.126;11.546;2022-08-19T11:46:11;3.10;;;2.90;;
9178;SDS011;4624;48.126;11.546;2022-08-19T11:48:40;2.60;;;2.40;;
9178;SDS011;4624;48.126;11.546;2022-08-19T11:51:08;2.67;;;2.30;;
9178;SDS011;4624;48.126;11.546;2022-08-19T11:53:37;2.70;;;2.50;;
9178;SDS011;4624;48.126;11.546;2022-08-19T11:56:05;2.35;;;2.25;;
9178;SDS011;4624;48.126;11.546;2022-08-19T11:58:33;2.20;;;2.10;;
9178;SDS011;4624;48.126;11.546;2022-08-19T12:01:04;2.60;;;2.40;;
9178;SDS011;4624;48.126;11.546;2022-08-19T12:03:32;2.25;;;2.05;;
9178;SDS011;4624;48.126;11.546;2022-08-19T12:06:02;2.38;;;1.83;;
9178;SDS011;4624;48.126;11.546;2022-08-19T12:08:30;1.50;;;1.20;;
9178;SDS011;4624;48.126;11.546;2022-08-19T12:10:57;1.25;;;1.10;;
9178;SDS011;4624;48.126;11.546;2022-08-19T12:13:25;0.82;;;0.82;;
9178;SDS011;4624;48.126;11.546;2022-08-19T12:15:53;0.98;;;0.80;;
9178;SDS011;4624;48.126;11.546;2022-08-19T12:18:21;0.70;;;0.70;;
9178;SDS011;4624;48.126;11.546;2022-08-19T12:20:50;0.93;;;0.73;;
9178;SDS011;4624;48.126;11.546;2022-08-19T12:23:17;0.80;;;0.70;;
9178;SDS011;4624;48.126;11.546;2022-08-19T12:25:45;0.60;;;0.60;;
9178;SDS011;4624;48.126;11.546;2022-08-19T12:28:16;1.33;;;0.60;;
9178;SDS011;4624;48.126;11.546;2022-08-19T12:30:43;0.60;;;0.60;;
9178;SDS011;4624;48.126;11.546;2022-08-19T12:33:10;0.50;;;0.50;;
9178;SDS011;4624;48.126;11.546;2022-08-19T12:35:40;0.60;;;0.60;;
9178;SDS011;4624;48.126;11.546;2022-08-19T12:38:07;0.60;;;0.60;;
9178;SDS011;4624;48.126;11.546;2022-08-19T12:40:34;0.75;;;0.75;;
9178;SDS011;4624;48.126;11.546;2022-08-19T12:43:01;0.60;;;0.60;;
9178;SDS011;4624;48.126;11.546;2022-08-19T12:45:28;2.00;;;0.70;;
9178;SDS011;4624;48.126;11.546;2022-08-19T12:47:54;0.50;;;0.50;;
9178;SDS011;4624;48.126;11.546;2022-08-19T12:50:21;0.60;;;0.40;;
9178;SDS011;4624;48.126;11.546;2022-08-19T12:52:49;0.50;;;0.50;;
9178;SDS011;4624;48.126;11.546;2022-08-19T12:55:17;0.50;;;0.50;;
9178;SDS011;4624;48.126;11.546;2022-08-19T12:57:44;0.50;;;0.50;;
9178;SDS011;4624;48.126;11.546;2022-08-19T13:00:14;0.65;;;0.65;;
9178;SDS011;4624;48.126;11.546;2022-08-19T13:02:43;0.70;;;0.65;;
9178;SDS011;4624;48.126;11.546;2022-08-19T13:05:12;1.95;;;0.70;;
9178;SDS011;4624;48.126;11.546;2022-08-19T13:07:41;0.73;;;0.65;;
9178;SDS011;4624;48.126;11.546;2022-08-19T13:10:11;1.77;;;0.82;;
9178;SDS011;4624;48.126;11.546;2022-08-19T13:12:42;0.77;;;0.77;;
9178;SDS011;4624;48.126;11.546;2022-08-19T13:15:10;0.70;;;0.70;;
9178;SDS011;4624;48.126;11.546;2022-08-19T13:17:38;0.60;;;0.60;;
9178;SDS011;4624;48.126;11.546;2022-08-19T13:20:06;1.55;;;0.65;;
9178;SDS011;4624;48.126;11.546;2022-08-19T13:22:34;1.77;;;0.90;;
9178;SDS011;4624;48.126;11.546;2022-08-19T13:25:01;1.50;;;0.60;;
9178;SDS011;4624;48.126;11.546;2022-08-19T13:27:30;0.73;;;0.70;;
9178;SDS011;4624;48.126;11.546;2022-08-19T13:29:56;0.70;;;0.70;;
9178;SDS011;4624;48.126;11.546;2022-08-19T13:32:41;0.88;;;0.70;;
9178;SDS011;4624;48.126;11.546;2022-08-19T13:35:33;0.60;;;0.60;;
9178;SDS011;4624;48.126;11.546;2022-08-19T13:38:00;0.60;;;0.60;;
9178;SDS011;4624;48.126;11.546;2022-08-19T13:40:30;0.60;;;0.60;;
9178;SDS011;4624;48.126;11.546;2022-08-19T13:43:00;0.70;;;0.70;;
9178;SDS011;4624;48.126;11.546;2022-08-19T13:45:28;0.98;;;0.93;;
9178;SDS011;4624;48.126;11.546;2022-08-19T13:47:57;0.82;;;0.82;;
9178;SDS011;4624;48.126;11.546;2022-08-19T13:50:25;1.00;;;1.00;;
9178;SDS011;4624;48.126;11.546;2022-08-19T13:52:54;0.80;;;0.80;;
9178;SDS011;4624;48.126;11.546;2022-08-19T13:55:22;1.38;;;1.27;;
9178;SDS011;4624;48.126;11.546;2022-08-19T13:57:49;1.20;;;1.10;;
9178;SDS011;4624;48.126;11.546;2022-08-19T14:00:19;1.73;;;1.20;;
9178;SDS011;4624;48.126;11.546;2022-08-19T14:02:48;0.90;;;0.90;;
9178;SDS011;4624;48.126;11.546;2022-08-19T14:05:17;2.25;;;1.42;;
9178;SDS011;4624;48.126;11.546;2022-08-19T14:07:45;1.10;;;1.00;;
9178;SDS011;4624;48.126;11.546;2022-08-19T14:10:13;1.70;;;1.60;;
9178;SDS011;4624;48.126;11.546;2022-08-19T14:12:40;1.70;;;1.60;;
9178;SDS011;4624;48.126;11.546;2022-08-19T14:15:08;1.55;;;1.45;;
9178;SDS011;4624;48.126;11.546;2022-08-19T14:17:38;1.63;;;1.52;;
9178;SDS011;4624;48.126;11.546;2022-08-19T14:20:06;1.48;;;1.38;;
9178;SDS011;4624;48.126;11.546;2022-08-19T14:22:34;1.50;;;1.40;;
9178;SDS011;4624;48.126;11.546;2022-08-19T14:25:02;1.50;;;1.40;;
9178;SDS011;4624;48.126;11.546;2022-08-19T14:27:29;1.80;;;1.70;;
9178;SDS011;4624;48.126;11.546;2022-08-19T14:29:58;1.45;;;1.35;;
9178;SDS011;4624;48.126;11.546;2022-08-19T14:32:25;2.25;;;1.52;;
9178;SDS011;4624;48.126;11.546;2022-08-19T14:34:53;1.48;;;1.38;;
9178;SDS011;4624;48.126;11.546;2022-08-19T14:37:20;1.60;;;1.50;;
9178;SDS011;4624;48.126;11.546;2022-08-19T14:39:47;1.27;;;1.17;;
9178;SDS011;4624;48.126;11.546;2022-08-19T14:42:15;1.40;;;1.30;;
9178;SDS011;4624;48.126;11.546;2022-08-19T14:44:42;1.40;;;1.30;;
9178;SDS011;4624;48.126;11.546;2022-08-19T14:47:09;1.30;;;1.08;;
9178;SDS011;4624;48.126;11.546;2022-08-19T14:49:36;1.20;;;1.10;;
9178;SDS011;4624;48.126;11.546;2022-08-19T14:52:05;1.20;;;1.20;;
9178;SDS011;4624;48.126;11.546;2022-08-19T14:54:32;1.83;;;1.08;;
9178;SDS011;4624;48.126;11.546;2022-08-19T14:56:59;0.90;;;0.90;;
9178;SDS011;4624;48.126;11.546;2022-08-19T14:59:26;0.98;;;0.98;;
9178;SDS011;4624;48.126;11.546;2022-08-19T15:01:53;1.07;;;0.97;;
9178;SDS011;4624;48.126;11.546;2022-08-19T15:04:19;0.80;;;0.80;;
9178;SDS011;4624;48.126;11.546;2022-08-19T15:06:46;1.13;;;1.13;;